Latest Weather Observations for Perisher Valley

IDN60801

Issued at 2:35 am EST Sunday 20 April 2014 (issued every 30 minutes, with the page automatically refreshed every 10 minutes)

About weather observations | Map of weather stations | Latest weather observations for NSW | Other Formats
Station Details ID: 071075 Name: PERISHER VALLEY AWS Lat: -36.41 Lon: 148.41 Height: 1738.0 m
Data from the previous 72 hours. | See also: Recent months at Perisher Valley
Date/Time
EST
Temp
°C
App
Temp
°C
Dew
Point
Rel
Hum
%
Delta-T
°C
Wind Press
QNH
hPa
Press
MSL
hPa
Rain
since 9 am
mm
Dir
 
Spd
km/h
Gust
km/h
Spd
kts
Gust
kts
20/02:30am 1.4 -4.7 0.1 91 0.5 W 22 35 12 19 - - 0.0
20/02:00am 1.2 -4.5 0.3 94 0.4 W 20 37 11 20 - - 0.0
20/01:30am -1.6 -4.6 -2.2 96 0.1 ENE 4 7 2 4 - - 0.0
20/01:00am -1.0 -3.9 -1.1 99 0.0 ENE 4 6 2 3 - - 0.0
20/12:30am -2.4 -5.1 -2.5 99 -0.1 NE 2 6 1 3 - - 0.0
20/12:00am -2.6 -5.0 -2.9 98 0.0 CALM 0 4 0 2 - - 0.0
 
Date/Time
EST
Temp
°C
App
Temp
°C
Dew
Point
Rel
Hum
%
Delta-T
°C
Wind Press
QNH
hPa
Press
MSL
hPa
Rain
since 9 am
mm
Dir
 
Spd
km/h
Gust
km/h
Spd
kts
Gust
kts
19/11:30pm -1.9 -4.5 -2.0 99 -0.1 ENE 2 4 1 2 - - 0.0
19/11:00pm -1.1 -3.6 -1.2 99 0.0 W 2 4 1 2 - - 0.0
19/10:30pm -0.3 -2.3 -0.4 99 0.0 CALM 0 2 0 1 - - 0.0
19/10:00pm 0.6 -2.1 0.5 99 0.0 NE 4 7 2 4 - - 0.0
19/09:30pm 0.7 -2.3 0.6 99 0.0 NNE 6 9 3 5 - - 0.0
19/09:00pm 1.1 -1.9 1.0 99 0.0 NE 6 11 3 6 - - 0.0
19/08:30pm 1.1 -1.5 1.0 99 0.0 N 4 7 2 4 - - 0.0
19/08:00pm -1.4 -3.6 -1.8 97 0.1 CALM 0 2 0 1 - - 0.0
19/07:30pm -1.0 -3.6 -1.6 96 0.2 WSW 2 2 1 1 - - 0.0
19/07:00pm -0.8 -3.4 -1.6 94 0.3 N 2 6 1 3 - - 0.0
19/06:30pm -0.1 -2.3 -1.5 90 0.5 CALM 0 4 0 2 - - 0.0
19/06:00pm 1.2 -1.7 -0.9 86 0.8 NE 4 9 2 5 - - 0.0
19/05:30pm 3.2 -0.3 1.1 86 0.9 W 9 15 5 8 - - 0.0
19/05:00pm 3.8 1.7 1.4 84 1.1 WSW 2 6 1 3 - - 0.0
19/04:30pm 5.2 2.3 1.7 78 1.6 SSE 6 13 3 7 - - 0.0
19/04:00pm 6.2 3.1 1.3 71 2.2 SSE 7 13 4 7 - - 0.0
19/03:30pm 7.6 4.6 0.8 62 3.0 NNW 6 9 3 5 - - 0.0
19/03:00pm 8.1 5.0 1.5 63 3.0 SSE 7 19 4 10 - - 0.0
19/02:30pm 9.1 6.0 1.5 59 3.5 NW 7 17 4 9 - - 0.0
19/02:00pm 9.0 5.4 0.5 55 3.8 WSW 9 15 5 8 - - 0.0
19/01:30pm 8.3 4.8 1.5 62 3.1 SE 9 15 5 8 - - 0.0
19/01:00pm 8.0 4.6 1.6 64 2.9 SSE 9 15 5 8 - - 0.0
19/12:30pm 7.3 3.5 -0.4 58 3.3 SSE 9 17 5 9 - - 0.0
19/12:00pm 8.8 6.0 2.2 63 3.1 E 6 13 3 7 - - 0.0
19/11:30am 8.2 5.0 0.9 60 3.3 E 7 15 4 8 - - 0.0
19/11:00am 8.4 5.0 1.8 63 3.0 NE 9 15 5 8 - - 0.0
19/10:30am 7.1 3.6 1.0 65 2.7 NE 9 13 5 7 - - 0.0
19/10:00am 6.1 3.0 0.0 65 2.6 NNE 6 9 3 5 - - 0.0
19/09:30am 3.7 0.8 -1.4 69 2.1 ENE 4 9 2 5 - - 0.0
19/09:00am 1.7 -1.6 -1.4 80 1.2 S 6 13 3 7 - - 3.2
19/08:30am 1.0 -1.5 -1.1 86 0.8 ESE 2 6 1 3 - - 3.2
19/08:00am -0.8 -3.0 -1.5 95 0.2 CALM 0 4 0 2 - - 3.2
19/07:30am -3.6 -6.2 -4.6 93 0.2 CALM 0 2 0 1 - - 3.2
19/07:00am -6.0 -8.8 -7.1 92 0.1 CALM 0 2 0 1 - - 3.2
19/06:30am -6.3 -9.1 -7.4 92 0.1 CALM 0 2 0 1 - - 3.2
19/06:00am -5.3 -8.5 -6.7 90 0.2 N 2 4 1 2 - - 3.2
19/05:30am -4.6 -7.7 -5.8 91 0.2 N 2 6 1 3 - - 3.2
19/05:00am -4.5 -8.0 -5.9 90 0.3 N 4 7 2 4 - - 3.2
19/04:30am -5.0 -8.1 -6.2 91 0.2 SW 2 6 1 3 - - 3.2
19/04:00am -4.4 -7.1 -6.4 86 0.5 CALM 0 2 0 1 - - 3.2
19/03:30am -4.4 -7.6 -6.7 84 0.6 ENE 2 6 1 3 - - 3.2
19/03:00am -3.6 -7.4 -5.7 85 0.5 WSW 6 13 3 7 - - 3.2
19/02:30am -3.7 -7.1 -5.5 87 0.4 SW 4 9 2 5 - - 3.2
19/02:00am -2.9 -6.3 -4.9 86 0.6 WSW 4 7 2 4 - - 3.2
19/01:30am -2.2 -5.0 -3.6 90 0.4 NNE 2 6 1 3 - - 3.2
19/01:00am -1.7 -4.8 -3.0 91 0.4 W 4 7 2 4 - - 3.2
19/12:30am -1.4 -3.7 -2.4 93 0.3 CALM 0 7 0 4 - - 3.2
19/12:00am -0.5 -3.0 -1.3 94 0.3 E 2 13 1 7 - - 3.2
 
Date/Time
EST
Temp
°C
App
Temp
°C
Dew
Point
Rel
Hum
%
Delta-T
°C
Wind Press
QNH
hPa
Press
MSL
hPa
Rain
since 9 am
mm
Dir
 
Spd
km/h
Gust
km/h
Spd
kts
Gust
kts
18/11:30pm 0.2 -2.2 -0.6 94 0.3 SW 2 7 1 4 - - 3.2
18/11:00pm 1.1 -1.6 0.2 94 0.4 SSW 4 9 2 5 - - 3.2
18/10:30pm 1.9 -0.8 0.6 91 0.5 WSW 4 9 2 5 - - 3.2
18/10:00pm 3.2 0.4 2.0 92 0.5 SW 6 15 3 8 - - 3.2
18/09:30pm 3.6 0.7 1.6 87 0.9 SW 6 13 3 7 - - 3.2
18/09:00pm 4.8 0.7 2.5 85 1.0 WSW 13 24 7 13 - - 3.2
18/08:30pm 4.7 1.9 3.2 90 0.7 WSW 7 17 4 9 - - 3.2
18/08:00pm 5.2 2.1 3.4 88 0.8 WSW 9 26 5 14 - - 3.2
18/07:30pm 5.3 2.7 4.0 91 0.6 SW 7 20 4 11 - - 3.2
18/07:00pm 5.4 2.9 4.7 95 0.3 WSW 7 24 4 13 - - 3.2
18/06:30pm 5.5 1.9 4.8 95 0.3 W 13 32 7 17 - - 2.8
18/06:00pm 5.5 1.1 4.8 95 0.3 W 17 30 9 16 - - 2.6
18/05:30pm 5.5 1.9 4.8 95 0.3 WSW 13 37 7 20 - - 0.8
18/05:00pm 5.5 2.2 4.8 95 0.3 W 11 30 6 16 - - 0.2
18/04:30pm 5.7 2.4 4.5 92 0.6 W 11 30 6 16 - - 0.0
18/04:00pm 5.7 3.7 4.5 92 0.6 W 4 17 2 9 - - 0.0
18/03:30pm 5.8 0.7 4.1 89 0.8 WSW 20 39 11 21 - - 0.0
18/03:00pm 5.8 2.7 3.8 87 0.9 W 9 19 5 10 - - 0.0
18/02:30pm 5.9 1.9 2.7 80 1.5 W 13 32 7 17 - - 0.0
18/02:00pm 6.2 1.4 2.5 77 1.7 W 17 48 9 26 - - 0.0
18/01:30pm 5.8 2.7 3.8 87 0.9 W 9 32 5 17 - - 0.0
18/01:00pm 5.5 1.2 3.5 87 0.9 W 15 37 8 20 - - 0.0
18/12:30pm 5.2 0.1 4.3 94 0.4 WNW 20 44 11 24 - - 0.0
18/12:00pm 5.7 0.7 3.7 87 0.9 W 19 46 10 25 - - 0.0
18/11:30am 5.4 1.2 3.9 90 0.7 W 15 33 8 18 - - 0.0
18/11:00am 5.8 0.7 3.3 84 1.2 W 19 43 10 23 - - 0.0
18/10:30am 6.5 -0.7 3.1 79 1.6 W 30 56 16 30 - - 0.0
18/10:00am 6.8 -1.9 2.3 73 2.1 W 37 65 20 35 - - 0.0
18/09:30am 6.9 -2.0 3.0 76 1.8 W 39 63 21 34 - - 0.0
18/09:00am 6.8 -0.1 2.7 75 1.9 W 28 54 15 29 - - 0.0
18/08:30am 6.5 -0.4 2.8 77 1.7 W 28 61 15 33 - - 0.0
18/08:00am 6.2 0.2 1.1 70 2.3 W 22 46 12 25 - - 0.0
18/07:30am 5.7 0.4 1.8 76 1.8 W 19 46 10 25 - - 0.0
18/07:00am 5.0 -0.9 2.0 81 1.3 W 22 39 12 21 - - 0.0
18/06:30am 5.0 -0.2 2.2 82 1.3 W 19 39 10 21 - - 0.0
18/06:00am 5.0 0.7 1.1 76 1.7 WSW 13 26 7 14 - - 0.0
18/05:30am 5.0 1.2 2.0 81 1.3 WSW 11 24 6 13 - - 0.0
18/05:00am 4.9 1.3 3.1 88 0.8 W 11 28 6 15 - - 0.0
18/04:30am 5.1 0.5 3.8 91 0.6 W 17 37 9 20 - - 0.0
18/04:00am 4.5 1.0 3.5 93 0.5 WSW 11 24 6 13 - - 0.0
18/03:30am 4.3 1.1 2.8 90 0.7 W 9 24 5 13 - - 0.0
18/03:00am 4.2 0.9 2.6 89 0.7 SW 9 22 5 12 - - 0.0
18/02:30am 4.4 0.3 2.4 87 0.9 WSW 13 19 7 10 - - 0.0
18/02:00am 4.9 0.1 2.8 86 1.0 WSW 17 28 9 15 - - 0.0
18/01:30am 4.5 -0.9 2.7 88 0.8 W 20 28 11 15 - - 0.0
18/01:00am 3.1 -0.3 1.8 91 0.6 SW 9 17 5 9 - - 0.0
18/12:30am 3.3 0.3 2.3 93 0.4 WSW 7 15 4 8 - - 0.0
18/12:00am 2.9 0.0 2.8 99 0.0 WSW 7 17 4 9 - - 0.0
 
Date/Time
EST
Temp
°C
App
Temp
°C
Dew
Point
Rel
Hum
%
Delta-T
°C
Wind Press
QNH
hPa
Press
MSL
hPa
Rain
since 9 am
mm
Dir
 
Spd
km/h
Gust
km/h
Spd
kts
Gust
kts
17/11:30pm 0.6 -1.7 0.5 99 0.0 SSW 2 7 1 4 - - 0.0
17/11:00pm 0.3 -1.7 0.0 98 0.1 CALM 0 2 0 1 - - 0.0
17/10:30pm 1.0 -1.2 0.9 99 0.0 NNE 2 4 1 2 - - 0.0
17/10:00pm 0.1 -2.3 -0.2 98 0.1 SSW 2 6 1 3 - - 0.0
17/09:30pm 0.3 -2.4 0.2 99 0.0 SW 4 7 2 4 - - 0.0
17/09:00pm 0.1 -2.3 -0.2 98 0.1 SW 2 6 1 3 - - 0.0
17/08:30pm 0.3 -2.1 -0.1 97 0.2 SW 2 6 1 3 - - 0.0
17/08:00pm 0.8 -1.5 0.2 96 0.2 SW 2 4 1 2 - - 0.0
17/07:30pm 1.1 -0.9 -0.4 90 0.6 CALM 0 4 0 2 - - 0.0
17/07:00pm 1.6 -1.1 0.4 92 0.5 WSW 4 7 2 4 - - 0.0
17/06:30pm 2.0 -0.3 0.7 91 0.5 WSW 2 4 1 2 - - 0.0
17/06:00pm 3.0 0.8 1.1 87 0.8 WSW 2 6 1 3 - - 0.0
17/05:30pm 4.4 2.3 1.4 81 1.3 WSW 2 6 1 3 - - 0.0
17/05:00pm 7.0 4.8 3.3 77 1.7 WSW 4 11 2 6 - - 0.0
17/04:30pm 8.2 5.6 3.1 70 2.4 WSW 6 13 3 7 - - 0.0
17/04:00pm 9.8 8.3 5.2 73 2.3 N 2 6 1 3 - - 0.0
17/03:30pm 8.3 6.7 4.5 77 1.9 E 2 6 1 3 - - 0.0
17/03:00pm 8.5 6.1 4.5 76 2.0 ESE 6 13 3 7 - - 0.0
17/02:30pm 9.0 6.7 4.8 75 2.1 E 6 11 3 6 - - 0.0
17/02:00pm 8.9 6.3 3.3 68 2.7 SSE 6 11 3 6 - - 0.0
17/01:30pm 10.0 7.5 3.7 65 3.1 S 6 15 3 8 - - 0.0
17/01:00pm 10.1 7.3 3.2 62 3.3 ESE 7 15 4 8 - - 0.0
17/12:30pm 9.9 6.9 2.3 59 3.6 S 7 15 4 8 - - 0.0
17/12:00pm 10.6 7.9 2.7 58 3.8 SSE 6 15 3 8 - - 0.0
17/11:30am 9.1 5.6 1.5 59 3.5 E 9 17 5 9 - - 0.0
17/11:00am 9.8 6.2 2.9 62 3.3 ESE 11 20 6 11 - - 0.0
17/10:30am 8.9 6.1 2.0 62 3.2 SE 6 11 3 6 - - 0.0
17/10:00am 8.6 5.9 0.1 55 3.8 SSW 4 7 2 4 - - 0.0
17/09:30am 7.2 4.3 1.3 66 2.7 SW 6 11 3 6 - - 0.0
17/09:00am 6.3 3.5 2.0 74 2.0 WSW 6 11 3 6 - - 0.0
17/08:30am 5.3 3.0 2.5 82 1.3 SW 4 9 2 5 - - 0.0
17/08:00am 3.4 1.6 3.3 99 0.0 SW 2 6 1 3 - - 0.0
17/07:30am 1.1 -1.1 0.8 98 0.1 WSW 2 6 1 3 - - 0.0
17/07:00am -0.3 -3.1 -0.4 99 0.0 WSW 4 7 2 4 - - 0.0
17/06:30am -0.9 -4.2 -1.0 99 0.0 WSW 6 7 3 4 - - 0.0
17/06:00am -1.5 -4.1 -1.6 99 0.0 S 2 6 1 3 - - 0.0
17/05:30am -1.5 -3.7 -1.6 99 0.0 CALM 0 2 0 1 - - 0.0
17/05:00am -2.0 -4.3 -2.3 98 0.0 CALM 0 2 0 1 - - 0.0
17/04:30am -1.8 -4.4 -1.9 99 -0.1 W 2 6 1 3 - - 0.0
17/04:00am -1.8 -5.2 -2.1 98 0.0 SW 6 7 3 4 - - 0.0
17/03:30am -1.9 -4.2 -2.5 96 0.1 CALM 0 0 0 0 - - 0.0
17/03:00am -1.5 -4.1 -1.9 97 0.1 W 2 4 1 2 - - 0.0

Other Formats:

Comma delimited format used in spreadsheet applications
http://www.bom.gov.au/fwo/IDN60801/IDN60801.94915.axf

JavaScript Object Notation format (JSON) in row-major order
http://www.bom.gov.au/fwo/IDN60801/IDN60801.94915.json